Time;durP1;ratioP1;P1;durP2;ratioP2;P2;SDS_P1;SDS_P2;PMS_P1;PMS_P2;Temp;Humidity;BMP_temperature;BMP_pressure;BME280_temperature;BME280_humidity;BME280_pressure;Samples;Min_cycle;Max_cycle;Signal;HPM_P1;HPM_P2
2023/03/15 00:00:09;;;;;;;10.83;2.40;;;4.20;99.90;;;;;;5032780;28;20182;-66
2023/03/15 00:02:35;;;;;;;5.60;2.57;;;4.20;99.90;;;;;;5036400;28;20177;-65
2023/03/15 00:05:01;;;;;;;5.70;2.60;;;4.00;99.90;;;;;;5053648;28;20177;-65
2023/03/15 00:07:27;;;;;;;4.87;2.40;;;3.90;99.90;;;;;;5053440;28;20283;-65
2023/03/15 00:09:53;;;;;;;7.50;2.67;;;3.90;99.90;;;;;;5052238;28;20197;-65
2023/03/15 00:12:21;;;;;;;6.83;3.37;;;4.00;99.90;;;;;;5053320;28;20700;-66
2023/03/15 00:14:48;;;;;;;3.90;2.33;;;4.50;99.90;;;;;;5053582;28;20177;-66
2023/03/15 00:17:14;;;;;;;6.97;2.20;;;4.00;99.90;;;;;;5052962;28;20173;-65
2023/03/15 00:19:39;;;;;;;4.50;1.90;;;4.50;99.90;;;;;;5045971;28;20213;-65
2023/03/15 00:22:05;;;;;;;5.40;1.90;;;3.80;99.90;;;;;;5039717;28;20184;-65
2023/03/15 00:24:30;;;;;;;3.33;1.70;;;3.80;99.90;;;;;;5051483;28;20635;-65
2023/03/15 00:26:56;;;;;;;4.17;1.30;;;3.80;99.90;;;;;;5051339;28;20653;-65
2023/03/15 00:29:22;;;;;;;2.60;1.73;;;3.80;99.90;;;;;;5052314;28;20185;-65
2023/03/15 00:31:48;;;;;;;5.60;1.53;;;3.80;99.90;;;;;;5051435;28;20597;-64
2023/03/15 00:34:14;;;;;;;8.47;1.73;;;;;;;;;;5040683;28;20734;-64
2023/03/15 00:36:42;;;;;;;5.90;2.00;;;3.80;99.90;;;;;;5037345;28;20393;-64
2023/03/15 00:39:08;;;;;;;4.43;1.97;;;3.80;99.90;;;;;;5051371;28;20259;-64
2023/03/15 00:41:34;;;;;;;5.87;2.17;;;3.80;99.90;;;;;;5049951;28;20199;-65
2023/03/15 00:43:59;;;;;;;2.77;1.77;;;4.60;99.90;;;;;;5045601;28;20180;-65
2023/03/15 00:46:25;;;;;;;2.73;1.90;;;3.30;99.90;;;;;;5051086;28;20178;-65
2023/03/15 00:48:51;;;;;;;6.20;2.30;;;3.70;99.90;;;;;;5043379;28;20177;-65
2023/03/15 00:51:20;;;;;;;5.87;2.47;;;3.60;99.90;;;;;;5051798;28;20171;-65
2023/03/15 00:53:47;;;;;;;7.07;2.23;;;3.50;99.90;;;;;;5052778;28;20180;-65
2023/03/15 00:56:22;;;;;;;4.17;2.30;;;3.60;99.90;;;;;;5053154;28;20590;-63
2023/03/15 00:58:47;;;;;;;5.63;1.97;;;3.70;99.90;;;;;;5053136;28;20302;-64
2023/03/15 01:01:22;;;;;;;3.63;1.70;;;3.60;99.90;;;;;;5052744;28;20174;-64
2023/03/15 01:03:48;;;;;;;5.07;2.10;;;3.50;99.90;;;;;;5052581;28;20169;-64
2023/03/15 01:06:17;;;;;;;6.67;2.23;;;3.60;99.90;;;;;;5052272;28;20165;-64
2023/03/15 01:08:44;;;;;;;7.47;2.60;;;3.60;99.90;;;;;;5051372;28;20181;-64
2023/03/15 01:11:12;;;;;;;3.40;2.00;;;3.70;99.90;;;;;;5051281;28;20531;-64
2023/03/15 01:13:39;;;;;;;10.00;2.63;;;3.60;99.90;;;;;;5051725;28;20217;-64
2023/03/15 01:16:05;;;;;;;5.80;2.53;;;3.50;99.90;;;;;;5052303;28;20192;-64
2023/03/15 01:18:31;;;;;;;8.43;2.53;;;3.60;99.90;;;;;;5052351;28;20201;-64
2023/03/15 01:20:58;;;;;;;4.70;2.90;;;;;;;;;;5052446;28;20167;-64
2023/03/15 01:23:23;;;;;;;6.83;3.50;;;3.50;99.90;;;;;;5050971;28;20207;-64
2023/03/15 01:25:49;;;;;;;10.00;3.27;;;3.30;99.90;;;;;;5052061;28;20691;-64
2023/03/15 01:28:15;;;;;;;7.37;3.40;;;3.20;99.90;;;;;;5051164;28;20188;-64
2023/03/15 01:30:48;;;;;;;7.67;3.33;;;3.30;99.90;;;;;;5050900;28;20681;-64
2023/03/15 01:33:14;;;;;;;7.93;3.53;;;3.10;99.90;;;;;;5033124;28;20186;-64
2023/03/15 01:35:39;;;;;;;6.43;3.40;;;5.70;99.90;;;;;;5050292;28;20544;-65
2023/03/15 01:38:05;;;;;;;6.03;3.60;;;3.20;99.90;;;;;;5051270;28;20541;-64
2023/03/15 01:40:30;;;;;;;6.03;3.67;;;3.20;99.90;;;;;;5051880;28;20177;-64
2023/03/15 01:43:05;;;;;;;5.40;3.17;;;3.00;99.90;;;;;;5051161;28;20511;-64
2023/03/15 01:46:04;;;;;;;11.67;3.70;;;3.30;99.90;;;;;;5050979;28;20276;-65
2023/03/15 01:48:54;;;;;;;6.13;2.83;;;2.80;99.90;;;;;;5037432;28;20252;-64
2023/03/15 01:51:37;;;;;;;4.73;2.70;;;3.20;99.90;;;;;;5049875;28;20176;-64
2023/03/15 01:54:24;;;;;;;7.23;2.93;;;3.10;99.90;;;;;;5032668;28;20185;-65
2023/03/15 01:56:58;;;;;;;10.60;3.60;;;3.10;99.90;;;;;;5039257;28;20173;-65
2023/03/15 01:59:33;;;;;;;13.67;3.37;;;3.10;99.90;;;;;;5050755;28;20220;-65
2023/03/15 02:02:00;;;;;;;12.93;3.33;;;3.00;99.90;;;;;;5051273;28;20254;-65
2023/03/15 02:04:35;;;;;;;7.73;3.27;;;3.00;99.90;;;;;;5051423;28;20177;-64
2023/03/15 02:07:02;;;;;;;6.13;2.67;;;3.00;99.90;;;;;;5051251;28;20184;-64
2023/03/15 02:09:43;;;;;;;6.63;2.67;;;3.00;99.90;;;;;;5039288;28;20640;-64
2023/03/15 02:12:09;;;;;;;7.47;2.43;;;3.00;99.90;;;;;;5030736;28;20624;-65
2023/03/15 02:14:35;;;;;;;11.90;3.33;;;4.80;99.90;;;;;;5025711;28;20474;-67
2023/03/15 02:17:01;;;;;;;7.60;3.33;;;3.00;99.90;;;;;;5030648;28;20208;-65
2023/03/15 02:19:38;;;;;;;9.20;3.53;;;3.10;99.90;;;;;;5029705;28;20221;-65
2023/03/15 02:22:21;;;;;;;6.93;2.90;;;2.90;99.90;;;;;;5031614;28;20683;-65
2023/03/15 02:25:03;;;;;;;8.13;2.43;;;2.90;99.90;;;;;;5044608;28;20372;-65
2023/03/15 02:27:33;;;;;;;4.73;2.03;;;2.90;99.90;;;;;;5042866;28;20185;-65
2023/03/15 02:30:02;;;;;;;6.93;2.23;;;3.00;99.90;;;;;;5049887;28;20635;-65
2023/03/15 02:32:28;;;;;;;7.20;2.17;;;2.70;99.90;;;;;;5049869;28;20260;-65
2023/03/15 02:34:53;;;;;;;4.83;2.07;;;2.60;99.90;;;;;;5049146;28;20187;-65
2023/03/15 02:37:20;;;;;;;6.27;2.30;;;2.60;99.90;;;;;;5050083;28;20328;-66
2023/03/15 02:39:46;;;;;;;4.77;2.30;;;2.70;99.90;;;;;;5050241;28;20220;-66
2023/03/15 02:42:12;;;;;;;6.97;2.20;;;3.40;99.90;;;;;;5048975;28;20175;-66
2023/03/15 02:44:41;;;;;;;5.00;1.80;;;2.70;99.90;;;;;;5050588;28;20256;-66
2023/03/15 02:47:12;;;;;;;6.00;2.03;;;2.70;99.90;;;;;;5046097;28;20195;-66
2023/03/15 02:49:41;;;;;;;2.00;1.30;;;2.70;99.90;;;;;;5049830;28;20227;-66
2023/03/15 02:52:07;;;;;;;7.27;1.77;;;2.70;99.90;;;;;;5048730;28;20330;-66
2023/03/15 02:54:33;;;;;;;4.77;2.00;;;2.50;99.90;;;;;;5045319;28;20217;-66
2023/03/15 02:57:02;;;;;;;6.03;1.73;;;2.60;99.90;;;;;;5044692;28;20212;-66
2023/03/15 02:59:28;;;;;;;6.27;2.40;;;2.70;99.90;;;;;;5048268;28;20213;-64
2023/03/15 03:01:54;;;;;;;4.90;2.30;;;2.60;99.90;;;;;;5048086;28;20177;-65
2023/03/15 03:04:19;;;;;;;6.00;2.77;;;2.60;99.90;;;;;;5044585;28;20185;-65
2023/03/15 03:06:46;;;;;;;5.07;2.70;;;2.50;99.90;;;;;;5043180;28;20212;-65
2023/03/15 03:09:12;;;;;;;6.77;2.40;;;;;;;;;;5039397;28;20177;-65
2023/03/15 03:11:38;;;;;;;4.43;2.63;;;2.60;99.90;;;;;;5053522;28;20243;-65
2023/03/15 03:14:04;;;;;;;5.43;2.27;;;2.50;99.90;;;;;;5053270;28;20599;-66
2023/03/15 03:16:31;;;;;;;4.53;2.20;;;2.80;99.90;;;;;;5045656;28;20174;-65
2023/03/15 03:18:57;;;;;;;5.67;1.43;;;;;;;;;;5054083;28;20205;-65
2023/03/15 03:21:23;;;;;;;2.43;1.30;;;2.40;99.90;;;;;;5054334;28;20200;-66
2023/03/15 03:23:48;;;;;;;4.23;1.50;;;2.60;99.90;;;;;;5049132;28;20891;-66
2023/03/15 03:26:17;;;;;;;3.67;1.97;;;2.60;99.90;;;;;;5054629;28;20200;-66
2023/03/15 03:28:45;;;;;;;6.27;1.57;;;2.70;99.90;;;;;;5053181;28;20187;-66
2023/03/15 03:31:23;;;;;;;7.70;1.30;;;2.50;99.90;;;;;;5054601;28;20181;-66
2023/03/15 03:33:48;;;;;;;1.93;1.40;;;2.50;99.90;;;;;;5054917;28;20165;-66
2023/03/15 03:36:14;;;;;;;2.67;1.27;;;2.50;99.90;;;;;;5056543;28;20704;-66
2023/03/15 03:38:41;;;;;;;3.63;1.67;;;2.60;99.90;;;;;;5055460;28;20220;-65
2023/03/15 03:41:11;;;;;;;5.53;2.00;;;2.50;99.90;;;;;;5037810;28;20177;-65
2023/03/15 03:43:37;;;;;;;4.70;1.73;;;2.60;99.90;;;;;;5055066;28;20166;-65
2023/03/15 03:46:03;;;;;;;5.53;2.37;;;2.70;99.90;;;;;;5054252;28;20177;-67
2023/03/15 03:48:30;;;;;;;3.50;1.10;;;2.50;99.90;;;;;;5054046;28;20174;-65
2023/03/15 03:50:56;;;;;;;2.27;1.30;;;2.60;99.90;;;;;;5051787;28;20315;-66
2023/03/15 03:53:21;;;;;;;4.27;1.40;;;2.70;99.90;;;;;;5048017;28;20165;-65
2023/03/15 03:55:47;;;;;;;2.63;1.03;;;2.60;99.90;;;;;;5053751;28;20719;-67
2023/03/15 03:58:13;;;;;;;2.47;1.37;;;2.60;99.90;;;;;;5053791;28;20201;-66
2023/03/15 04:00:39;;;;;;;3.60;1.50;;;2.20;99.90;;;;;;5049376;28;20181;-65
2023/03/15 04:03:04;;;;;;;5.23;1.90;;;2.60;99.90;;;;;;5045187;28;20254;-66
2023/03/15 04:05:30;;;;;;;4.40;2.50;;;2.60;99.90;;;;;;5055478;28;20170;-66
2023/03/15 04:07:55;;;;;;;8.23;3.20;;;2.80;99.90;;;;;;5054152;28;20173;-66
2023/03/15 04:10:25;;;;;;;5.67;3.07;;;2.60;99.90;;;;;;5053228;28;20532;-65
2023/03/15 04:12:55;;;;;;;6.60;3.57;;;3.00;99.90;;;;;;5037315;28;20700;-65
2023/03/15 04:15:22;;;;;;;6.87;2.63;;;2.60;99.90;;;;;;5053143;28;20173;-65
2023/03/15 04:17:48;;;;;;;9.63;2.53;;;2.60;99.90;;;;;;5043204;28;20243;-65
2023/03/15 04:20:16;;;;;;;5.27;2.50;;;2.10;99.90;;;;;;5028712;28;20206;-65
2023/03/15 04:22:48;;;;;;;6.53;3.17;;;2.60;99.90;;;;;;5037334;28;20182;-65
2023/03/15 04:25:14;;;;;;;6.13;3.10;;;2.50;99.90;;;;;;5032890;28;20269;-65
2023/03/15 04:27:41;;;;;;;8.07;2.97;;;2.50;99.90;;;;;;5043586;28;20177;-66
2023/03/15 04:30:07;;;;;;;7.10;2.47;;;2.30;99.90;;;;;;5055186;28;20188;-66
2023/03/15 04:32:34;;;;;;;4.60;2.80;;;2.30;99.90;;;;;;5055814;28;20177;-69
2023/03/15 04:35:00;;;;;;;7.10;2.73;;;2.10;99.90;;;;;;5056375;28;20235;-71
2023/03/15 04:37:27;;;;;;;5.77;2.60;;;2.10;99.90;;;;;;5056687;28;20268;-67
2023/03/15 04:39:52;;;;;;;5.57;2.83;;;2.10;99.90;;;;;;5040627;28;20810;-66
2023/03/15 04:42:18;;;;;;;4.10;2.57;;;;;;;;;;5043895;28;20205;-67
2023/03/15 04:44:44;;;;;;;4.57;2.43;;;2.20;99.90;;;;;;5037211;28;20185;-67
2023/03/15 04:47:09;;;;;;;5.03;2.60;;;2.30;99.90;;;;;;5055054;28;20689;-67
2023/03/15 04:49:35;;;;;;;5.23;2.30;;;2.20;99.90;;;;;;5056048;28;20176;-68
2023/03/15 04:52:01;;;;;;;5.47;2.53;;;2.20;99.90;;;;;;5054250;28;20616;-68
2023/03/15 04:54:26;;;;;;;5.60;2.57;;;2.30;99.90;;;;;;5054526;28;20177;-66
2023/03/15 04:56:52;;;;;;;4.47;3.00;;;2.20;99.90;;;;;;5043877;28;20719;-68
2023/03/15 04:59:17;;;;;;;7.07;3.23;;;2.20;99.90;;;;;;5054825;28;20240;-66
2023/03/15 05:01:43;;;;;;;6.23;3.13;;;2.20;99.90;;;;;;5049764;28;20174;-65
2023/03/15 05:04:09;;;;;;;5.97;3.40;;;2.00;99.90;;;;;;5035781;28;20166;-66
2023/03/15 05:06:34;;;;;;;6.07;3.33;;;2.10;99.90;;;;;;5035688;28;20498;-69
2023/03/15 05:09:00;;;;;;;8.17;3.03;;;2.40;99.90;;;;;;5035064;28;20177;-66
2023/03/15 05:11:25;;;;;;;9.50;3.50;;;2.50;99.90;;;;;;5035140;28;20566;-65
2023/03/15 05:13:52;;;;;;;9.83;3.33;;;2.20;99.90;;;;;;5040351;28;20221;-66
2023/03/15 05:16:17;;;;;;;9.27;3.83;;;2.10;99.90;;;;;;5054048;28;20259;-67
2023/03/15 05:18:44;;;;;;;5.60;3.23;;;2.20;99.90;;;;;;5049787;28;20292;-64
2023/03/15 05:21:11;;;;;;;7.07;3.40;;;2.20;99.90;;;;;;5054707;28;20190;-66
2023/03/15 05:23:37;;;;;;;5.57;3.57;;;2.00;99.90;;;;;;5054744;28;20232;-65
2023/03/15 05:26:03;;;;;;;8.07;3.80;;;2.00;99.90;;;;;;5055349;28;20165;-66
2023/03/15 05:28:30;;;;;;;6.50;3.17;;;1.50;99.90;;;;;;5054899;28;20162;-64
2023/03/15 05:30:56;;;;;;;8.03;3.53;;;2.00;99.90;;;;;;5054619;28;20205;-65
2023/03/15 05:33:21;;;;;;;7.57;3.07;;;2.00;99.90;;;;;;5052084;28;20197;-65
2023/03/15 05:35:47;;;;;;;8.23;3.30;;;2.20;99.90;;;;;;5052357;28;20177;-66
2023/03/15 05:38:13;;;;;;;8.97;3.73;;;2.10;99.90;;;;;;5052316;28;20205;-66
2023/03/15 05:40:41;;;;;;;8.60;3.47;;;1.90;99.90;;;;;;5052418;28;20218;-65
2023/03/15 05:43:07;;;;;;;7.70;3.50;;;2.00;99.90;;;;;;5052677;28;20180;-65
2023/03/15 05:45:33;;;;;;;6.43;3.40;;;;;;;;;;5051274;28;20181;-68
2023/03/15 05:47:58;;;;;;;6.07;3.47;;;1.80;99.90;;;;;;5051276;28;20165;-65
2023/03/15 05:50:24;;;;;;;14.77;4.03;;;2.10;99.90;;;;;;5052082;28;20192;-65
2023/03/15 05:52:50;;;;;;;13.07;3.40;;;2.00;99.90;;;;;;5047033;28;20201;-66
2023/03/15 05:55:22;;;;;;;5.63;3.23;;;2.00;99.90;;;;;;5150328;27;20553;-66
2023/03/15 05:57:48;;;;;;;6.90;3.73;;;2.10;99.90;;;;;;5121149;27;20178;-65
2023/03/15 06:00:15;;;;;;;8.77;4.17;;;2.10;99.90;;;;;;5129921;27;20624;-65
2023/03/15 06:02:44;;;;;;;11.33;4.17;;;2.10;99.90;;;;;;5129860;27;20171;-69
2023/03/15 06:05:10;;;;;;;9.20;4.30;;;2.10;99.90;;;;;;5148640;27;20201;-67
2023/03/15 06:07:36;;;;;;;5.67;3.87;;;2.10;99.90;;;;;;5145344;27;20611;-66
2023/03/15 06:10:03;;;;;;;11.33;4.10;;;2.10;99.90;;;;;;5148142;27;20756;-66
2023/03/15 06:12:28;;;;;;;8.07;4.23;;;2.50;99.90;;;;;;5136095;27;20193;-66
2023/03/15 06:14:54;;;;;;;10.53;4.43;;;2.20;99.90;;;;;;5129472;27;20696;-66
2023/03/15 06:17:19;;;;;;;9.13;4.10;;;2.10;99.90;;;;;;5130612;27;20646;-66
2023/03/15 06:19:45;;;;;;;8.57;4.37;;;2.20;99.90;;;;;;5147442;27;20236;-65
2023/03/15 06:22:11;;;;;;;8.63;4.57;;;2.40;99.90;;;;;;5138643;27;20199;-65
2023/03/15 06:24:36;;;;;;;7.40;4.60;;;2.20;99.90;;;;;;5127936;27;20553;-64
2023/03/15 06:27:02;;;;;;;11.37;5.17;;;2.20;99.90;;;;;;5129532;27;20571;-64
2023/03/15 06:29:28;;;;;;;9.20;4.40;;;2.20;99.90;;;;;;5143921;27;20171;-64
2023/03/15 06:31:53;;;;;;;7.93;4.77;;;2.20;99.90;;;;;;5129435;27;20291;-64
2023/03/15 06:34:20;;;;;;;13.40;4.60;;;2.70;99.90;;;;;;5129191;27;20214;-64
2023/03/15 06:36:46;;;;;;;9.90;4.83;;;2.20;99.90;;;;;;5134452;27;20180;-64
2023/03/15 06:39:12;;;;;;;12.50;4.57;;;2.20;99.90;;;;;;5149327;27;20186;-66
2023/03/15 06:41:38;;;;;;;7.60;4.73;;;1.80;99.90;;;;;;5148600;27;20158;-66
2023/03/15 06:44:04;;;;;;;13.13;4.93;;;2.20;99.90;;;;;;5149513;27;20188;-66
2023/03/15 06:46:30;;;;;;;7.40;4.70;;;2.10;99.90;;;;;;5149766;27;20185;-65
2023/03/15 06:48:56;;;;;;;8.93;4.90;;;2.10;99.90;;;;;;5149694;27;20174;-65
2023/03/15 06:51:22;;;;;;;8.97;5.17;;;2.70;99.90;;;;;;5149193;27;20193;-65
2023/03/15 06:53:48;;;;;;;12.07;5.47;;;2.30;99.90;;;;;;5149268;27;20214;-65
2023/03/15 06:56:13;;;;;;;16.17;5.53;;;2.30;99.90;;;;;;5132767;27;20166;-66
2023/03/15 06:58:39;;;;;;;10.37;5.00;;;2.30;99.90;;;;;;5149122;27;20170;-65
2023/03/15 07:01:05;;;;;;;9.70;5.10;;;2.30;99.90;;;;;;5137379;27;20182;-65
2023/03/15 07:03:30;;;;;;;26.33;5.50;;;2.40;99.90;;;;;;5136802;27;20625;-65
2023/03/15 07:05:56;;;;;;;11.10;5.10;;;2.50;99.90;;;;;;5139286;27;20216;-65
2023/03/15 07:08:23;;;;;;;14.83;4.67;;;2.50;99.90;;;;;;5114858;27;20549;-65
2023/03/15 07:10:49;;;;;;;14.07;5.10;;;2.10;99.90;;;;;;5114862;27;20534;-65
2023/03/15 07:13:16;;;;;;;9.03;4.50;;;2.40;99.90;;;;;;5134914;27;20177;-65
2023/03/15 07:15:41;;;;;;;10.57;5.27;;;2.60;99.90;;;;;;5130303;27;20198;-65
2023/03/15 07:18:07;;;;;;;9.00;4.03;;;2.70;99.90;;;;;;5123661;27;20163;-65
2023/03/15 07:20:33;;;;;;;10.20;4.83;;;2.70;99.90;;;;;;5134916;27;20174;-64
2023/03/15 07:22:59;;;;;;;10.70;4.50;;;;;;;;;;5134118;27;20167;-65
2023/03/15 07:25:24;;;;;;;9.43;4.60;;;2.60;99.90;;;;;;5133786;27;20653;-64
2023/03/15 07:27:51;;;;;;;9.93;4.93;;;2.80;99.90;;;;;;5133935;27;20266;-64
2023/03/15 07:30:19;;;;;;;11.80;4.80;;;2.80;99.90;;;;;;5135377;27;20192;-64
2023/03/15 07:32:45;;;;;;;10.13;4.87;;;3.00;99.90;;;;;;5134960;27;20254;-65
2023/03/15 07:35:12;;;;;;;9.50;5.07;;;3.20;99.90;;;;;;5134422;27;20703;-64
2023/03/15 07:37:37;;;;;;;9.67;5.10;;;3.10;99.90;;;;;;5133999;27;20200;-64
2023/03/15 07:40:08;;;;;;;10.27;5.10;;;3.30;99.90;;;;;;5134332;27;20689;-64
2023/03/15 07:42:37;;;;;;;9.67;4.50;;;3.40;99.90;;;;;;5134332;27;20266;-64
2023/03/15 07:45:06;;;;;;;11.00;5.27;;;3.40;99.90;;;;;;5133986;27;20175;-64
2023/03/15 07:47:32;;;;;;;8.57;4.77;;;;;;;;;;5133724;27;20183;-64
2023/03/15 07:49:58;;;;;;;11.83;4.73;;;3.50;99.90;;;;;;5133771;27;20167;-67
2023/03/15 07:52:24;;;;;;;5.00;3.97;;;7.40;99.90;;;;;;5132747;27;20171;-68
2023/03/15 07:54:50;;;;;;;11.40;4.67;;;4.00;99.90;;;;;;5132385;27;20226;-67
2023/03/15 07:57:15;;;;;;;11.50;5.47;;;3.60;99.90;;;;;;5125236;27;20806;-66
2023/03/15 07:59:41;;;;;;;10.80;5.90;;;3.70;99.90;;;;;;5122141;27;20631;-67
2023/03/15 08:02:11;;;;;;;11.33;5.07;;;3.90;99.90;;;;;;5113289;28;20171;-68
2023/03/15 08:04:36;;;;;;;13.03;5.60;;;3.90;99.90;;;;;;5125640;27;20209;-68
2023/03/15 08:07:02;;;;;;;10.70;5.50;;;4.00;99.90;;;;;;5132040;27;20584;-67
2023/03/15 08:09:28;;;;;;;9.53;5.13;;;;;;;;;;5122935;27;20250;-65
2023/03/15 08:11:54;;;;;;;13.00;5.23;;;;;;;;;;5110513;27;20175;-65
2023/03/15 08:14:20;;;;;;;14.33;5.97;;;4.20;99.90;;;;;;5115866;27;20210;-65
2023/03/15 08:16:45;;;;;;;12.27;5.70;;;4.30;99.90;;;;;;5124570;27;20189;-66
2023/03/15 08:19:11;;;;;;;8.83;5.00;;;4.30;99.90;;;;;;5131780;27;20181;-66
2023/03/15 08:21:37;;;;;;;17.40;5.90;;;4.60;99.90;;;;;;5132803;27;20170;-65
2023/03/15 08:24:02;;;;;;;8.40;5.37;;;4.50;99.90;;;;;;5124202;27;20189;-65
2023/03/15 08:26:28;;;;;;;15.83;7.23;;;4.80;99.90;;;;;;5112098;28;20175;-66
2023/03/15 08:28:53;;;;;;;15.70;6.27;;;4.50;99.90;;;;;;5112988;27;20163;-65
2023/03/15 08:31:20;;;;;;;13.37;6.13;;;;;;;;;;5117351;27;20267;-66
2023/03/15 08:33:46;;;;;;;10.37;5.63;;;4.70;99.90;;;;;;5111428;28;20203;-65
2023/03/15 08:36:12;;;;;;;10.43;5.77;;;4.80;99.90;;;;;;5111834;28;20866;-65
2023/03/15 08:38:37;;;;;;;12.57;5.33;;;4.80;99.90;;;;;;5111517;28;20253;-65
2023/03/15 08:41:03;;;;;;;11.67;6.17;;;4.90;99.90;;;;;;5112360;27;20182;-70
2023/03/15 08:43:29;;;;;;;14.20;6.30;;;5.00;99.90;;;;;;5112788;27;20588;-65
2023/03/15 08:45:54;;;;;;;15.50;6.30;;;4.90;99.90;;;;;;5112036;28;20187;-66
2023/03/15 08:48:20;;;;;;;11.63;5.90;;;5.10;99.90;;;;;;5131868;27;20639;-66
2023/03/15 08:50:45;;;;;;;10.70;6.20;;;5.10;99.90;;;;;;5133076;27;20178;-66
2023/03/15 08:53:11;;;;;;;11.90;6.37;;;6.10;99.90;;;;;;5123417;27;20630;-65
2023/03/15 08:55:37;;;;;;;13.03;6.23;;;5.20;99.90;;;;;;5111951;28;20199;-66
2023/03/15 08:58:03;;;;;;;11.50;5.77;;;5.20;99.90;;;;;;5111487;28;20171;-66
2023/03/15 09:00:29;;;;;;;13.13;6.50;;;5.60;99.90;;;;;;5111571;28;20704;-66
2023/03/15 09:02:55;;;;;;;12.83;6.57;;;5.40;99.90;;;;;;5110501;28;20220;-66
2023/03/15 09:05:23;;;;;;;13.13;6.03;;;5.60;99.90;;;;;;5110847;27;20289;-66
2023/03/15 09:07:51;;;;;;;12.07;6.40;;;5.90;99.90;;;;;;5112160;27;20163;-66
2023/03/15 09:10:18;;;;;;;16.20;6.37;;;5.70;99.90;;;;;;5119874;27;20192;-67
2023/03/15 09:12:47;;;;;;;16.13;6.13;;;5.90;99.90;;;;;;5122807;27;20175;-69
2023/03/15 09:15:13;;;;;;;11.50;5.70;;;;;;;;;;5111519;27;20240;-69
2023/03/15 09:17:40;;;;;;;13.80;6.20;;;6.20;99.90;;;;;;5110515;28;20193;-69
2023/03/15 09:20:11;;;;;;;11.43;5.60;;;6.30;99.90;;;;;;5118077;27;20586;-69
2023/03/15 09:22:36;;;;;;;17.47;5.77;;;6.30;99.90;;;;;;5127675;27;20167;-67
2023/03/15 09:25:03;;;;;;;9.83;5.00;;;6.40;99.90;;;;;;5111210;28;20186;-66
2023/03/15 09:27:32;;;;;;;11.27;5.30;;;6.40;99.90;;;;;;5114579;27;20171;-68
2023/03/15 09:29:58;;;;;;;17.07;5.60;;;6.50;99.90;;;;;;5110965;28;20224;-70
2023/03/15 09:32:23;;;;;;;11.50;5.43;;;6.60;99.90;;;;;;5111936;27;20174;-66
2023/03/15 09:34:50;;;;;;;15.03;5.67;;;6.60;99.90;;;;;;5111441;27;20210;-66
2023/03/15 09:37:16;;;;;;;10.47;5.07;;;;;;;;;;5117212;27;20227;-66
2023/03/15 09:39:41;;;;;;;8.73;4.87;;;6.80;99.90;;;;;;5130122;27;20179;-66
2023/03/15 09:42:20;;;;;;;13.20;4.90;;;6.80;99.90;;;;;;5131780;27;20170;-66
2023/03/15 09:45:01;;;;;;;13.00;5.20;;;8.10;99.90;;;;;;5131208;27;20234;-67
2023/03/15 09:47:43;;;;;;;17.07;5.47;;;7.10;99.90;;;;;;5125511;27;20175;-66
2023/03/15 09:50:24;;;;;;;11.50;4.83;;;7.10;99.90;;;;;;5113417;28;20178;-66
2023/03/15 09:52:55;;;;;;;9.60;4.30;;;7.40;99.90;;;;;;5131109;28;20242;-66
2023/03/15 09:55:28;;;;;;;10.23;4.47;;;7.50;99.90;;;;;;5123283;28;20688;-66
2023/03/15 09:57:58;;;;;;;8.30;4.10;;;7.30;99.90;;;;;;5110927;28;20171;-67
2023/03/15 10:00:40;;;;;;;19.87;4.47;;;7.40;99.90;;;;;;5111142;28;20644;-68
2023/03/15 10:03:08;;;;;;;14.60;4.60;;;;;;;;;;5111304;28;20209;-67
2023/03/15 10:05:37;;;;;;;14.90;4.80;;;7.60;99.90;;;;;;5111140;28;20661;-68
2023/03/15 10:08:12;;;;;;;17.07;5.67;;;7.70;99.90;;;;;;5093072;28;20175;-66
2023/03/15 10:10:46;;;;;;;12.00;4.00;;;7.90;99.90;;;;;;5111144;28;20201;-66
2023/03/15 10:13:49;;;;;;;14.90;4.40;;;7.90;99.90;;;;;;5110618;28;20649;-67
2023/03/15 10:16:39;;;;;;;11.77;4.30;;;7.80;99.90;;;;;;5110355;28;20528;-66
2023/03/15 10:19:26;;;;;;;8.23;3.13;;;7.80;99.90;;;;;;5110230;28;20611;-67
2023/03/15 10:22:14;;;;;;;9.50;3.50;;;8.00;99.90;;;;;;5110317;28;20199;-66
2023/03/15 10:24:45;;;;;;;15.47;3.60;;;8.10;99.90;;;;;;5110388;28;20179;-66
2023/03/15 10:27:23;;;;;;;12.20;3.77;;;8.10;99.90;;;;;;5110304;28;20178;-66
2023/03/15 10:29:51;;;;;;;7.60;2.63;;;8.20;99.90;;;;;;5111076;28;20163;-66
2023/03/15 10:32:19;;;;;;;9.20;3.10;;;8.30;99.90;;;;;;5110950;28;20251;-66
2023/03/15 10:34:49;;;;;;;7.37;1.90;;;8.50;99.90;;;;;;5110912;28;20214;-66
2023/03/15 10:37:15;;;;;;;8.00;2.00;;;8.30;99.90;;;;;;5110914;28;20168;-67
2023/03/15 10:39:45;;;;;;;11.17;2.70;;;8.10;99.90;;;;;;5110948;28;20262;-67
2023/03/15 10:42:31;;;;;;;7.50;2.30;;;8.10;99.90;;;;;;5114807;28;20263;-67
2023/03/15 10:44:59;;;;;;;9.47;2.03;;;;;;;;;;5114742;28;20163;-66
2023/03/15 10:47:25;;;;;;;4.13;1.37;;;8.50;99.90;;;;;;5114704;28;20163;-67
2023/03/15 10:49:57;;;;;;;10.90;1.27;;;8.60;99.90;;;;;;5114635;28;20797;-67
2023/03/15 10:52:34;;;;;;;11.33;1.53;;;8.70;99.90;;;;;;5114667;28;20182;-66
2023/03/15 10:55:10;;;;;;;6.80;1.33;;;8.90;99.90;;;;;;5114441;28;20218;-67
2023/03/15 10:57:49;;;;;;;4.33;1.40;;;8.90;99.90;;;;;;5114644;28;20698;-67
2023/03/15 11:00:32;;;;;;;6.97;1.27;;;8.80;99.90;;;;;;5114606;28;20208;-67
2023/03/15 11:03:14;;;;;;;7.20;1.43;;;8.90;99.90;;;;;;5114502;28;20224;-68
2023/03/15 11:05:46;;;;;;;9.53;1.30;;;9.10;99.90;;;;;;5114373;28;20167;-67
2023/03/15 11:08:18;;;;;;;8.43;1.43;;;8.80;99.90;;;;;;5114324;28;20646;-68
2023/03/15 11:10:45;;;;;;;5.27;1.00;;;8.90;99.90;;;;;;5094943;28;20175;-67
2023/03/15 11:13:21;;;;;;;11.37;0.80;;;8.90;99.90;;;;;;5107123;28;20191;-67
2023/03/15 11:16:10;;;;;;;14.63;1.20;;;8.80;99.90;;;;;;5113302;28;20178;-67
2023/03/15 11:18:42;;;;;;;7.93;1.00;;;9.00;99.90;;;;;;5113095;28;20212;-67
2023/03/15 11:21:12;;;;;;;9.77;1.00;;;8.80;99.90;;;;;;5094898;28;20270;-67
2023/03/15 11:23:44;;;;;;;3.73;0.97;;;8.90;99.90;;;;;;5113399;28;20202;-67
2023/03/15 11:26:25;;;;;;;5.43;0.93;;;9.00;99.90;;;;;;5112920;27;20574;-67
2023/03/15 11:28:55;;;;;;;7.97;1.10;;;9.10;99.90;;;;;;5124498;27;20193;-67
2023/03/15 11:31:25;;;;;;;12.67;1.23;;;9.20;99.90;;;;;;5112670;28;20176;-67
2023/03/15 11:34:19;;;;;;;7.40;1.17;;;9.10;99.90;;;;;;5127058;27;20237;-67
2023/03/15 11:36:53;;;;;;;12.07;1.10;;;9.10;99.90;;;;;;5133435;27;20174;-67
2023/03/15 11:39:33;;;;;;;10.77;1.63;;;9.00;99.90;;;;;;5132653;27;20178;-66
2023/03/15 11:42:05;;;;;;;6.63;1.10;;;9.10;99.90;;;;;;5133769;27;20175;-66
2023/03/15 11:44:45;;;;;;;9.20;1.17;;;9.00;99.90;;;;;;5130711;27;20636;-66
2023/03/15 11:47:35;;;;;;;8.87;1.13;;;9.00;99.90;;;;;;5111898;28;20163;-66
2023/03/15 11:50:01;;;;;;;3.90;0.90;;;9.00;99.90;;;;;;5111301;28;20173;-66
2023/03/15 11:52:28;;;;;;;7.00;1.50;;;9.10;99.90;;;;;;5123000;27;20609;-66
2023/03/15 11:54:59;;;;;;;7.63;1.40;;;9.20;99.90;;;;;;5132778;27;20252;-66
2023/03/15 11:57:27;;;;;;;8.90;1.57;;;9.10;99.90;;;;;;5132006;27;20158;-66
2023/03/15 12:00:14;;;;;;;11.87;1.43;;;9.30;99.90;;;;;;5132523;27;20181;-66
2023/03/15 12:02:48;;;;;;;3.63;0.90;;;9.30;99.90;;;;;;5132742;27;20174;-66
2023/03/15 12:05:42;;;;;;;8.43;1.10;;;11.00;99.90;;;;;;5132258;27;20162;-66
2023/03/15 12:08:20;;;;;;;6.63;1.07;;;9.30;99.90;;;;;;5131562;27;20245;-66
2023/03/15 12:10:48;;;;;;;5.03;1.20;;;9.20;99.90;;;;;;5132168;27;20167;-66
2023/03/15 12:13:25;;;;;;;10.47;1.20;;;9.30;99.90;;;;;;5131151;27;20198;-65
2023/03/15 12:15:52;;;;;;;9.83;1.20;;;9.40;99.90;;;;;;5114433;27;20536;-66
2023/03/15 12:18:21;;;;;;;5.67;1.47;;;9.60;99.90;;;;;;5131808;27;20159;-65
2023/03/15 12:20:56;;;;;;;9.53;1.57;;;9.60;99.90;;;;;;5132034;27;20166;-65
2023/03/15 12:23:47;;;;;;;7.87;1.90;;;9.60;99.90;;;;;;5111729;28;20167;-65
2023/03/15 12:26:25;;;;;;;4.60;1.20;;;9.50;99.90;;;;;;5111641;28;20611;-65
2023/03/15 12:29:05;;;;;;;9.73;1.67;;;9.70;99.90;;;;;;5111627;28;20167;-64
2023/03/15 12:31:56;;;;;;;7.67;1.53;;;9.80;99.90;;;;;;5111277;28;20185;-64
2023/03/15 12:34:24;;;;;;;6.93;1.70;;;9.90;99.90;;;;;;5111044;28;20215;-64
2023/03/15 12:36:55;;;;;;;9.37;1.33;;;9.70;99.90;;;;;;5112181;28;20183;-64
2023/03/15 12:39:39;;;;;;;4.73;1.07;;;10.40;99.90;;;;;;5111574;28;20218;-64
2023/03/15 12:42:10;;;;;;;3.57;1.30;;;9.80;99.90;;;;;;5111802;28;20167;-65
2023/03/15 12:44:39;;;;;;;9.67;1.90;;;9.60;99.90;;;;;;5092915;28;20175;-66
2023/03/15 12:47:10;;;;;;;5.53;1.67;;;9.40;99.90;;;;;;5104840;28;20174;-65
2023/03/15 12:49:45;;;;;;;4.37;0.93;;;9.60;99.90;;;;;;5111020;28;20164;-65
2023/03/15 12:52:11;;;;;;;13.53;1.33;;;9.50;99.90;;;;;;5111346;28;20178;-64
2023/03/15 12:54:51;;;;;;;2.83;0.93;;;9.40;99.90;;;;;;5111118;28;20309;-64
2023/03/15 12:57:26;;;;;;;5.80;1.60;;;9.50;99.90;;;;;;5111416;28;20652;-65
2023/03/15 13:00:00;;;;;;;8.10;1.30;;;9.30;99.90;;;;;;5112668;27;20198;-65
2023/03/15 13:02:32;;;;;;;5.43;1.00;;;9.60;99.90;;;;;;5121357;27;20250;-65
2023/03/15 13:05:09;;;;;;;6.50;1.30;;;9.50;99.90;;;;;;5125765;27;20609;-64
2023/03/15 13:07:44;;;;;;;5.87;1.40;;;9.50;99.90;;;;;;5131759;27;20624;-64